sensor_id;sensor_type;location;lat;lon;timestamp;pressure;altitude;pressure_sealevel;temperature;humidity
54465;BME280;40374;49.480;20.016;2023-01-04T00:01:28;96140.81;;;2.11;100.00
54465;BME280;40374;49.480;20.016;2023-01-04T00:03:56;96139.16;;;2.10;100.00
54465;BME280;40374;49.480;20.016;2023-01-04T00:06:24;96134.28;;;2.13;100.00
54465;BME280;40374;49.480;20.016;2023-01-04T00:08:52;96138.78;;;2.13;100.00
54465;BME280;40374;49.480;20.016;2023-01-04T00:11:21;96142.03;;;2.15;100.00
54465;BME280;40374;49.480;20.016;2023-01-04T00:13:51;96126.13;;;2.15;100.00
54465;BME280;40374;49.480;20.016;2023-01-04T00:16:22;96124.91;;;2.17;100.00
54465;BME280;40374;49.480;20.016;2023-01-04T00:18:52;96118.31;;;2.07;100.00
54465;BME280;40374;49.480;20.016;2023-01-04T00:21:25;96135.94;;;2.14;100.00
54465;BME280;40374;49.480;20.016;2023-01-04T00:23:56;96109.94;;;2.10;100.00
54465;BME280;40374;49.480;20.016;2023-01-04T00:26:26;96126.56;;;2.25;100.00
54465;BME280;40374;49.480;20.016;2023-01-04T00:28:57;96125.38;;;2.34;100.00
54465;BME280;40374;49.480;20.016;2023-01-04T00:31:26;96119.00;;;2.29;100.00
54465;BME280;40374;49.480;20.016;2023-01-04T00:33:59;96127.03;;;2.35;100.00
54465;BME280;40374;49.480;20.016;2023-01-04T00:36:27;96129.00;;;2.20;100.00
54465;BME280;40374;49.480;20.016;2023-01-04T00:38:58;96123.06;;;2.18;100.00
54465;BME280;40374;49.480;20.016;2023-01-04T00:41:50;96140.69;;;2.32;100.00
54465;BME280;40374;49.480;20.016;2023-01-04T00:44:28;96138.66;;;2.34;100.00
54465;BME280;40374;49.480;20.016;2023-01-04T00:46:57;96143.13;;;2.27;100.00
54465;BME280;40374;49.480;20.016;2023-01-04T00:49:26;96137.97;;;2.12;100.00
54465;BME280;40374;49.480;20.016;2023-01-04T00:51:54;96130.34;;;2.02;100.00
54465;BME280;40374;49.480;20.016;2023-01-04T00:54:23;96140.19;;;2.09;100.00
54465;BME280;40374;49.480;20.016;2023-01-04T00:56:50;96137.34;;;2.10;100.00
54465;BME280;40374;49.480;20.016;2023-01-04T00:59:19;96143.63;;;2.02;100.00
54465;BME280;40374;49.480;20.016;2023-01-04T01:01:47;96130.97;;;2.05;100.00
54465;BME280;40374;49.480;20.016;2023-01-04T01:04:17;96129.31;;;2.03;100.00
54465;BME280;40374;49.480;20.016;2023-01-04T01:06:45;96150.78;;;2.09;100.00
54465;BME280;40374;49.480;20.016;2023-01-04T01:09:14;96125.88;;;2.10;100.00
54465;BME280;40374;49.480;20.016;2023-01-04T01:11:42;96139.81;;;2.18;100.00
54465;BME280;40374;49.480;20.016;2023-01-04T01:14:19;96133.13;;;2.29;100.00
54465;BME280;40374;49.480;20.016;2023-01-04T01:16:47;96140.47;;;2.27;100.00
54465;BME280;40374;49.480;20.016;2023-01-04T01:19:27;96133.13;;;2.29;100.00
54465;BME280;40374;49.480;20.016;2023-01-04T01:21:55;96134.53;;;2.25;100.00
54465;BME280;40374;49.480;20.016;2023-01-04T01:24:25;96124.91;;;2.17;100.00
54465;BME280;40374;49.480;20.016;2023-01-04T01:26:52;96138.97;;;2.18;100.00
54465;BME280;40374;49.480;20.016;2023-01-04T01:29:21;96128.53;;;2.10;100.00
54465;BME280;40374;49.480;20.016;2023-01-04T01:31:48;96112.16;;;1.99;100.00
54465;BME280;40374;49.480;20.016;2023-01-04T01:34:16;96133.78;;;1.96;100.00
54465;BME280;40374;49.480;20.016;2023-01-04T01:36:43;96121.88;;;1.79;100.00
54465;BME280;40374;49.480;20.016;2023-01-04T01:39:10;96128.00;;;1.79;100.00
54465;BME280;40374;49.480;20.016;2023-01-04T01:41:38;96120.16;;;1.65;100.00
54465;BME280;40374;49.480;20.016;2023-01-04T01:44:46;96123.00;;;1.63;100.00
54465;BME280;40374;49.480;20.016;2023-01-04T01:46:53;96119.28;;;1.57;100.00
54465;BME280;40374;49.480;20.016;2023-01-04T01:49:29;96109.47;;;1.51;100.00
54465;BME280;40374;49.480;20.016;2023-01-04T01:51:59;96121.31;;;1.55;100.00
54465;BME280;40374;49.480;20.016;2023-01-04T01:54:33;96125.84;;;1.61;100.00
54465;BME280;40374;49.480;20.016;2023-01-04T01:57:03;96124.16;;;1.54;100.00
54465;BME280;40374;49.480;20.016;2023-01-04T01:59:33;96117.75;;;1.41;100.00
54465;BME280;40374;49.480;20.016;2023-01-04T02:02:02;96099.94;;;1.29;100.00
54465;BME280;40374;49.480;20.016;2023-01-04T02:04:29;96087.69;;;1.28;100.00
54465;BME280;40374;49.480;20.016;2023-01-04T02:06:57;96096.03;;;1.25;100.00
54465;BME280;40374;49.480;20.016;2023-01-04T02:09:25;96093.91;;;1.13;100.00
54465;BME280;40374;49.480;20.016;2023-01-04T02:11:53;96094.06;;;1.05;100.00
54465;BME280;40374;49.480;20.016;2023-01-04T02:14:23;96106.25;;;0.99;100.00
54465;BME280;40374;49.480;20.016;2023-01-04T02:17:03;96084.06;;;0.79;100.00
54465;BME280;40374;49.480;20.016;2023-01-04T02:19:50;96102.84;;;0.84;100.00
54465;BME280;40374;49.480;20.016;2023-01-04T02:25:15;96106.97;;;0.65;100.00
54465;BME280;40374;49.480;20.016;2023-01-04T02:27:53;96106.69;;;0.60;100.00
54465;BME280;40374;49.480;20.016;2023-01-04T02:36:08;96110.09;;;0.32;100.00
54465;BME280;40374;49.480;20.016;2023-01-04T02:38:48;96106.41;;;0.33;100.00
54465;BME280;40374;49.480;20.016;2023-01-04T02:41:31;96113.53;;;0.33;100.00
54465;BME280;40374;49.480;20.016;2023-01-04T02:44:23;96098.97;;;0.22;100.00
54465;BME280;40374;49.480;20.016;2023-01-04T02:47:14;96103.06;;;0.25;100.00
54465;BME280;40374;49.480;20.016;2023-01-04T02:49:43;96112.31;;;0.14;100.00
54465;BME280;40374;49.480;20.016;2023-01-04T02:52:31;96104.13;;;0.09;100.00
54465;BME280;40374;49.480;20.016;2023-01-04T02:55:00;96111.84;;;0.10;100.00
54465;BME280;40374;49.480;20.016;2023-01-04T03:00:17;96094.53;;;0.08;100.00
54465;BME280;40374;49.480;20.016;2023-01-04T03:03:18;96111.19;;;0.23;100.00
54465;BME280;40374;49.480;20.016;2023-01-04T03:06:26;96086.34;;;0.03;100.00
54465;BME280;40374;49.480;20.016;2023-01-04T03:09:07;96100.75;;;0.15;100.00
54465;BME280;40374;49.480;20.016;2023-01-04T03:11:51;96099.25;;;0.12;100.00
54465;BME280;40374;49.480;20.016;2023-01-04T03:14:46;96099.91;;;0.14;100.00
54465;BME280;40374;49.480;20.016;2023-01-04T03:17:19;96089.19;;;0.01;100.00
54465;BME280;40374;49.480;20.016;2023-01-04T03:19:52;96098.94;;;0.01;100.00
54465;BME280;40374;49.480;20.016;2023-01-04T03:22:43;96088.16;;;0.02;100.00
54465;BME280;40374;49.480;20.016;2023-01-04T03:25:36;96078.78;;;-0.01;100.00
54465;BME280;40374;49.480;20.016;2023-01-04T03:28:26;96068.31;;;-0.09;100.00
54465;BME280;40374;49.480;20.016;2023-01-04T03:34:06;96079.78;;;-0.02;100.00
54465;BME280;40374;49.480;20.016;2023-01-04T03:45:32;96064.28;;;-0.05;100.00
54465;BME280;40374;49.480;20.016;2023-01-04T03:48:26;96058.69;;;-0.16;100.00
54465;BME280;40374;49.480;20.016;2023-01-04T03:51:11;96074.34;;;-0.30;100.00
54465;BME280;40374;49.480;20.016;2023-01-04T03:54:32;96072.56;;;-0.44;100.00
54465;BME280;40374;49.480;20.016;2023-01-04T03:56:35;96083.66;;;-0.64;100.00
54465;BME280;40374;49.480;20.016;2023-01-04T03:59:04;96072.47;;;-0.80;100.00
54465;BME280;40374;49.480;20.016;2023-01-04T04:01:31;96075.38;;;-0.90;100.00
54465;BME280;40374;49.480;20.016;2023-01-04T04:03:59;96073.72;;;-1.06;100.00
54465;BME280;40374;49.480;20.016;2023-01-04T04:06:45;96083.72;;;-1.02;100.00
54465;BME280;40374;49.480;20.016;2023-01-04T04:09:32;96086.28;;;-0.93;100.00
54465;BME280;40374;49.480;20.016;2023-01-04T04:11:59;96081.31;;;-0.88;100.00
54465;BME280;40374;49.480;20.016;2023-01-04T04:14:27;96080.56;;;-0.82;100.00
54465;BME280;40374;49.480;20.016;2023-01-04T04:16:54;96083.03;;;-0.80;100.00
54465;BME280;40374;49.480;20.016;2023-01-04T04:19:22;96065.00;;;-0.92;100.00
54465;BME280;40374;49.480;20.016;2023-01-04T04:21:49;96070.38;;;-0.85;100.00
54465;BME280;40374;49.480;20.016;2023-01-04T04:24:19;96075.38;;;-0.90;100.00
54465;BME280;40374;49.480;20.016;2023-01-04T04:26:47;96071.53;;;-1.03;100.00
54465;BME280;40374;49.480;20.016;2023-01-04T04:29:15;96082.88;;;-1.17;100.00
54465;BME280;40374;49.480;20.016;2023-01-04T04:31:43;96073.91;;;-1.31;100.00
54465;BME280;40374;49.480;20.016;2023-01-04T04:34:11;96093.47;;;-1.40;100.00
54465;BME280;40374;49.480;20.016;2023-01-04T04:36:38;96085.72;;;-1.65;100.00
54465;BME280;40374;49.480;20.016;2023-01-04T04:39:06;96089.69;;;-1.69;100.00
54465;BME280;40374;49.480;20.016;2023-01-04T04:41:33;96085.94;;;-1.74;100.00
54465;BME280;40374;49.480;20.016;2023-01-04T04:44:19;96078.22;;;-1.76;100.00
54465;BME280;40374;49.480;20.016;2023-01-04T04:46:47;96059.50;;;-1.89;100.00
54465;BME280;40374;49.480;20.016;2023-01-04T04:49:16;96066.75;;;-1.91;100.00
54465;BME280;40374;49.480;20.016;2023-01-04T04:51:44;96068.47;;;-1.98;100.00
54465;BME280;40374;49.480;20.016;2023-01-04T04:54:20;96076.34;;;-1.90;100.00
54465;BME280;40374;49.480;20.016;2023-01-04T04:56:48;96091.53;;;-2.00;100.00
54465;BME280;40374;49.480;20.016;2023-01-04T04:59:16;96084.69;;;-2.10;100.00
54465;BME280;40374;49.480;20.016;2023-01-04T05:01:43;96073.50;;;-2.12;100.00
54465;BME280;40374;49.480;20.016;2023-01-04T05:04:11;96079.47;;;-2.18;100.00
54465;BME280;40374;49.480;20.016;2023-01-04T05:06:43;96068.31;;;-2.28;100.00
54465;BME280;40374;49.480;20.016;2023-01-04T05:09:12;96072.56;;;-2.27;100.00
54465;BME280;40374;49.480;20.016;2023-01-04T05:11:40;96064.06;;;-2.37;100.00
54465;BME280;40374;49.480;20.016;2023-01-04T05:14:26;96068.66;;;-2.39;100.00
54465;BME280;40374;49.480;20.016;2023-01-04T05:16:53;96071.00;;;-2.45;100.00
54465;BME280;40374;49.480;20.016;2023-01-04T05:19:22;96062.97;;;-2.51;100.00
54465;BME280;40374;49.480;20.016;2023-01-04T05:21:49;96064.44;;;-2.49;100.00
54465;BME280;40374;49.480;20.016;2023-01-04T05:24:17;96057.91;;;-2.61;100.00
54465;BME280;40374;49.480;20.016;2023-01-04T05:26:44;96059.72;;;-2.61;100.00
54465;BME280;40374;49.480;20.016;2023-01-04T05:29:11;96061.19;;;-2.59;100.00
54465;BME280;40374;49.480;20.016;2023-01-04T05:31:59;96057.22;;;-2.55;100.00
54465;BME280;40374;49.480;20.016;2023-01-04T05:34:26;96052.28;;;-2.50;100.00
54465;BME280;40374;49.480;20.016;2023-01-04T05:36:53;96054.06;;;-2.50;100.00
54465;BME280;40374;49.480;20.016;2023-01-04T05:39:21;96049.16;;;-2.53;100.00
54465;BME280;40374;49.480;20.016;2023-01-04T05:41:48;96050.78;;;-2.52;100.00
54465;BME280;40374;49.480;20.016;2023-01-04T05:44:34;96056.66;;;-2.42;100.00
54465;BME280;40374;49.480;20.016;2023-01-04T05:47:02;96059.94;;;-2.40;100.00
54465;BME280;40374;49.480;20.016;2023-01-04T05:49:29;96054.81;;;-2.33;100.00
54465;BME280;40374;49.480;20.016;2023-01-04T05:51:56;96055.94;;;-2.28;100.00
54465;BME280;40374;49.480;20.016;2023-01-04T05:54:24;96045.88;;;-2.24;100.00
54465;BME280;40374;49.480;20.016;2023-01-04T05:56:51;96035.00;;;-2.21;100.00
54465;BME280;40374;49.480;20.016;2023-01-04T05:59:19;96037.47;;;-2.19;100.00
54465;BME280;40374;49.480;20.016;2023-01-04T06:01:46;96034.19;;;-2.21;100.00
54465;BME280;40374;49.480;20.016;2023-01-04T06:04:14;96035.31;;;-2.16;100.00
54465;BME280;40374;49.480;20.016;2023-01-04T06:06:41;96030.03;;;-2.16;100.00
54465;BME280;40374;49.480;20.016;2023-01-04T06:09:08;96017.38;;;-2.20;100.00
54465;BME280;40374;49.480;20.016;2023-01-04T06:11:36;96032.94;;;-2.11;100.00
54465;BME280;40374;49.480;20.016;2023-01-04T06:14:03;96037.91;;;-2.08;100.00
54465;BME280;40374;49.480;20.016;2023-01-04T06:16:31;96033.91;;;-2.03;100.00
54465;BME280;40374;49.480;20.016;2023-01-04T06:18:59;96004.97;;;-2.12;100.00
54465;BME280;40374;49.480;20.016;2023-01-04T06:21:26;96022.31;;;-1.94;100.00
54465;BME280;40374;49.480;20.016;2023-01-04T06:23:54;96022.31;;;-1.94;100.00
54465;BME280;40374;49.480;20.016;2023-01-04T06:26:23;96007.66;;;-1.97;100.00
54465;BME280;40374;49.480;20.016;2023-01-04T06:28:50;96014.41;;;-1.94;100.00
54465;BME280;40374;49.480;20.016;2023-01-04T06:31:18;96010.69;;;-2.08;100.00
54465;BME280;40374;49.480;20.016;2023-01-04T06:33:45;96025.81;;;-2.02;100.00
54465;BME280;40374;49.480;20.016;2023-01-04T06:36:13;96017.78;;;-2.09;100.00
54465;BME280;40374;49.480;20.016;2023-01-04T06:38:47;96021.75;;;-2.13;100.00
54465;BME280;40374;49.480;20.016;2023-01-04T06:41:15;96028.97;;;-2.07;100.00
54465;BME280;40374;49.480;20.016;2023-01-04T06:43:44;96023.41;;;-2.12;100.00
54465;BME280;40374;49.480;20.016;2023-01-04T06:46:11;96021.38;;;-2.01;100.00
54465;BME280;40374;49.480;20.016;2023-01-04T06:48:39;96010.25;;;-2.12;100.00
54465;BME280;40374;49.480;20.016;2023-01-04T06:51:07;96022.03;;;-1.99;100.00
54465;BME280;40374;49.480;20.016;2023-01-04T06:53:35;96019.41;;;-1.99;100.00
54465;BME280;40374;49.480;20.016;2023-01-04T06:56:05;96010.59;;;-1.92;100.00
54465;BME280;40374;49.480;20.016;2023-01-04T06:58:36;96020.44;;;-1.86;100.00
54465;BME280;40374;49.480;20.016;2023-01-04T07:01:04;96018.16;;;-1.89;100.00
54465;BME280;40374;49.480;20.016;2023-01-04T07:03:32;96019.50;;;-1.93;100.00
54465;BME280;40374;49.480;20.016;2023-01-04T07:06:02;96009.88;;;-2.09;100.00
54465;BME280;40374;49.480;20.016;2023-01-04T07:08:31;96006.22;;;-1.99;100.00
54465;BME280;40374;49.480;20.016;2023-01-04T07:10:58;96020.53;;;-2.02;100.00
54465;BME280;40374;49.480;20.016;2023-01-04T07:13:27;96010.94;;;-1.95;100.00
54465;BME280;40374;49.480;20.016;2023-01-04T07:15:55;96004.66;;;-1.94;100.00
54465;BME280;40374;49.480;20.016;2023-01-04T07:18:22;96016.66;;;-1.91;100.00
54465;BME280;40374;49.480;20.016;2023-01-04T07:20:49;96002.94;;;-2.01;100.00
54465;BME280;40374;49.480;20.016;2023-01-04T07:23:17;96024.25;;;-1.88;100.00
54465;BME280;40374;49.480;20.016;2023-01-04T07:25:44;96022.25;;;-1.86;100.00
54465;BME280;40374;49.480;20.016;2023-01-04T07:28:12;96015.03;;;-1.92;100.00
54465;BME280;40374;49.480;20.016;2023-01-04T07:31:03;96022.19;;;-1.78;100.00
54465;BME280;40374;49.480;20.016;2023-01-04T07:33:31;96017.31;;;-1.89;100.00
54465;BME280;40374;49.480;20.016;2023-01-04T07:36:04;96026.13;;;-1.74;100.00
54465;BME280;40374;49.480;20.016;2023-01-04T07:38:34;96028.75;;;-1.74;100.00
54465;BME280;40374;49.480;20.016;2023-01-04T07:41:02;96028.28;;;-1.77;100.00
54465;BME280;40374;49.480;20.016;2023-01-04T07:43:30;96030.75;;;-1.76;100.00
54465;BME280;40374;49.480;20.016;2023-01-04T07:45:58;96028.13;;;-1.76;100.00
54465;BME280;40374;49.480;20.016;2023-01-04T07:48:28;96032.84;;;-1.71;100.00
54465;BME280;40374;49.480;20.016;2023-01-04T07:50:56;96034.97;;;-1.67;100.00
54465;BME280;40374;49.480;20.016;2023-01-04T07:53:23;96015.63;;;-1.82;100.00
54465;BME280;40374;49.480;20.016;2023-01-04T07:55:55;96028.50;;;-1.87;100.00
54465;BME280;40374;49.480;20.016;2023-01-04T07:58:24;96027.22;;;-1.91;100.00
54465;BME280;40374;49.480;20.016;2023-01-04T08:00:52;96026.28;;;-1.98;100.00
54465;BME280;40374;49.480;20.016;2023-01-04T08:03:20;96044.69;;;-1.90;100.00
54465;BME280;40374;49.480;20.016;2023-01-04T08:05:47;96044.81;;;-1.84;100.00
54465;BME280;40374;49.480;20.016;2023-01-04T08:08:15;96031.84;;;-1.70;100.00
54465;BME280;40374;49.480;20.016;2023-01-04T08:10:42;96025.81;;;-1.56;100.00
54465;BME280;40374;49.480;20.016;2023-01-04T08:13:10;96023.09;;;-1.48;100.00
54465;BME280;40374;49.480;20.016;2023-01-04T08:15:37;96021.34;;;-1.32;100.00
54465;BME280;40374;49.480;20.016;2023-01-04T08:18:04;96017.94;;;-1.26;100.00
54465;BME280;40374;49.480;20.016;2023-01-04T08:20:32;96019.69;;;-1.18;100.00
54465;BME280;40374;49.480;20.016;2023-01-04T08:23:00;96006.50;;;-1.18;100.00
54465;BME280;40374;49.480;20.016;2023-01-04T08:25:27;96002.69;;;-1.16;100.00
54465;BME280;40374;49.480;20.016;2023-01-04T08:27:55;96021.44;;;-1.11;100.00
54465;BME280;40374;49.480;20.016;2023-01-04T08:30:22;96005.16;;;-1.14;100.00
54465;BME280;40374;49.480;20.016;2023-01-04T08:32:50;96010.69;;;-1.09;100.00
54465;BME280;40374;49.480;20.016;2023-01-04T08:35:19;96007.97;;;-1.01;100.00
54465;BME280;40374;49.480;20.016;2023-01-04T08:37:47;95990.50;;;-1.02;100.00
54465;BME280;40374;49.480;20.016;2023-01-04T08:40:15;95984.75;;;-1.06;100.00
54465;BME280;40374;49.480;20.016;2023-01-04T08:42:42;95979.00;;;-1.09;100.00
54465;BME280;40374;49.480;20.016;2023-01-04T08:45:10;95975.56;;;-1.10;100.00
54465;BME280;40374;49.480;20.016;2023-01-04T08:47:37;95975.66;;;-1.03;100.00
54465;BME280;40374;49.480;20.016;2023-01-04T08:50:05;95978.56;;;-0.98;100.00
54465;BME280;40374;49.480;20.016;2023-01-04T08:52:37;95982.31;;;-0.77;100.00
54465;BME280;40374;49.480;20.016;2023-01-04T08:55:04;95973.38;;;-0.76;100.00
54465;BME280;40374;49.480;20.016;2023-01-04T08:57:39;95992.41;;;-0.66;100.00
54465;BME280;40374;49.480;20.016;2023-01-04T09:00:07;95986.56;;;-0.76;100.00
54465;BME280;40374;49.480;20.016;2023-01-04T09:02:35;95974.28;;;-0.84;100.00
54465;BME280;40374;49.480;20.016;2023-01-04T09:05:03;95986.94;;;-0.65;100.00
54465;BME280;40374;49.480;20.016;2023-01-04T09:07:31;95983.72;;;-0.60;100.00
54465;BME280;40374;49.480;20.016;2023-01-04T09:09:58;95988.72;;;-0.65;100.00
54465;BME280;40374;49.480;20.016;2023-01-04T09:12:29;95990.22;;;-0.63;100.00
54465;BME280;40374;49.480;20.016;2023-01-04T09:14:56;95972.63;;;-0.70;100.00
54465;BME280;40374;49.480;20.016;2023-01-04T09:17:24;95981.09;;;-0.60;100.00
54465;BME280;40374;49.480;20.016;2023-01-04T09:19:51;95983.72;;;-0.60;100.00
54465;BME280;40374;49.480;20.016;2023-01-04T09:22:18;95977.50;;;-0.37;100.00
54465;BME280;40374;49.480;20.016;2023-01-04T09:24:46;95973.03;;;-0.15;100.00
54465;BME280;40374;49.480;20.016;2023-01-04T09:27:13;95969.41;;;0.07;100.00
54465;BME280;40374;49.480;20.016;2023-01-04T09:29:40;95975.63;;;0.43;100.00
54465;BME280;40374;49.480;20.016;2023-01-04T09:32:08;95962.97;;;0.66;100.00
54465;BME280;40374;49.480;20.016;2023-01-04T09:34:43;95946.06;;;0.95;100.00
54465;BME280;40374;49.480;20.016;2023-01-04T09:37:11;95946.22;;;1.29;100.00
54465;BME280;40374;49.480;20.016;2023-01-04T09:39:38;95930.63;;;1.47;100.00
54465;BME280;40374;49.480;20.016;2023-01-04T09:42:37;95931.53;;;1.94;100.00
54465;BME280;40374;49.480;20.016;2023-01-04T09:45:23;95929.72;;;2.35;100.00
54465;BME280;40374;49.480;20.016;2023-01-04T09:48:05;95919.09;;;2.68;100.00
54465;BME280;40374;49.480;20.016;2023-01-04T09:53:35;95910.16;;;3.34;100.00
54465;BME280;40374;49.480;20.016;2023-01-04T09:56:28;95907.06;;;3.76;100.00
54465;BME280;40374;49.480;20.016;2023-01-04T09:58:57;95891.28;;;4.38;100.00
54465;BME280;40374;49.480;20.016;2023-01-04T10:01:38;95873.19;;;5.08;100.00
54465;BME280;40374;49.480;20.016;2023-01-04T10:04:24;95872.09;;;5.65;100.00
54465;BME280;40374;49.480;20.016;2023-01-04T10:06:54;95870.28;;;6.07;100.00
54465;BME280;40374;49.480;20.016;2023-01-04T10:09:30;95850.81;;;6.54;100.00
54465;BME280;40374;49.480;20.016;2023-01-04T10:25:56;95820.22;;;9.46;82.36
54465;BME280;40374;49.480;20.016;2023-01-04T10:37:21;95787.81;;;10.82;64.23
54465;BME280;40374;49.480;20.016;2023-01-04T10:39:51;95786.63;;;11.15;73.77
54465;BME280;40374;49.480;20.016;2023-01-04T10:42:32;95789.13;;;11.37;67.38
54465;BME280;40374;49.480;20.016;2023-01-04T10:46:13;95771.66;;;11.60;59.74
54465;BME280;40374;49.480;20.016;2023-01-04T10:48:29;95773.91;;;12.09;63.36
54465;BME280;40374;49.480;20.016;2023-01-04T10:51:04;95768.53;;;12.35;57.13
54465;BME280;40374;49.480;20.016;2023-01-04T10:53:42;95755.31;;;12.38;58.30
54465;BME280;40374;49.480;20.016;2023-01-04T10:56:37;95744.19;;;12.66;53.85
54465;BME280;40374;49.480;20.016;2023-01-04T10:59:15;95735.53;;;12.79;55.71
54465;BME280;40374;49.480;20.016;2023-01-04T11:01:59;95724.16;;;12.92;52.15
54465;BME280;40374;49.480;20.016;2023-01-04T11:04:36;95719.28;;;12.94;53.01
54465;BME280;40374;49.480;20.016;2023-01-04T11:07:12;95708.97;;;13.02;52.41
54465;BME280;40374;49.480;20.016;2023-01-04T11:10:23;95717.56;;;13.14;52.59
54465;BME280;40374;49.480;20.016;2023-01-04T11:12:47;95694.59;;;13.16;54.83
54465;BME280;40374;49.480;20.016;2023-01-04T11:15:15;95692.16;;;13.25;53.50
54465;BME280;40374;49.480;20.016;2023-01-04T11:17:42;95691.09;;;13.16;53.38
54465;BME280;40374;49.480;20.016;2023-01-04T11:20:10;95688.97;;;13.13;54.42
54465;BME280;40374;49.480;20.016;2023-01-04T11:22:41;95680.75;;;13.38;54.36
54465;BME280;40374;49.480;20.016;2023-01-04T11:25:17;95677.50;;;13.36;51.85
54465;BME280;40374;49.480;20.016;2023-01-04T11:33:16;95668.09;;;13.24;50.74
54465;BME280;40374;49.480;20.016;2023-01-04T11:35:55;95657.56;;;13.27;51.56
54465;BME280;40374;49.480;20.016;2023-01-04T11:38:27;95657.50;;;13.37;50.44
54465;BME280;40374;49.480;20.016;2023-01-04T11:41:04;95641.69;;;13.15;50.03
54465;BME280;40374;49.480;20.016;2023-01-04T11:43:37;95638.19;;;13.10;50.24
54465;BME280;40374;49.480;20.016;2023-01-04T11:48:42;95618.97;;;13.22;51.24
54465;BME280;40374;49.480;20.016;2023-01-04T11:51:34;95622.34;;;13.43;49.55
54465;BME280;40374;49.480;20.016;2023-01-04T11:56:39;95623.25;;;13.67;51.26
54465;BME280;40374;49.480;20.016;2023-01-04T11:59:16;95613.06;;;13.59;51.86
54465;BME280;40374;49.480;20.016;2023-01-04T12:02:16;95606.78;;;13.29;50.82
54465;BME280;40374;49.480;20.016;2023-01-04T12:05:18;95606.88;;;13.09;49.21
54465;BME280;40374;49.480;20.016;2023-01-04T12:07:57;95594.88;;;12.86;51.12
54465;BME280;40374;49.480;20.016;2023-01-04T12:10:26;95605.66;;;12.80;52.17
54465;BME280;40374;49.480;20.016;2023-01-04T12:12:56;95591.09;;;12.82;51.84
54465;BME280;40374;49.480;20.016;2023-01-04T12:18:40;95568.66;;;12.86;51.19
54465;BME280;40374;49.480;20.016;2023-01-04T12:21:20;95573.06;;;12.72;51.85
54465;BME280;40374;49.480;20.016;2023-01-04T12:23:48;95564.88;;;12.37;52.60
54465;BME280;40374;49.480;20.016;2023-01-04T12:26:16;95547.19;;;12.06;53.15
54465;BME280;40374;49.480;20.016;2023-01-04T12:28:50;95556.41;;;11.53;54.06
54465;BME280;40374;49.480;20.016;2023-01-04T12:33:53;95565.66;;;9.85;59.64
54465;BME280;40374;49.480;20.016;2023-01-04T12:50:11;95554.00;;;8.94;77.02
54465;BME280;40374;49.480;20.016;2023-01-04T12:52:47;95552.44;;;8.71;79.06
54465;BME280;40374;49.480;20.016;2023-01-04T13:01:24;95535.91;;;8.08;84.88
54465;BME280;40374;49.480;20.016;2023-01-04T13:03:59;95537.81;;;7.91;85.35
54465;BME280;40374;49.480;20.016;2023-01-04T13:06:43;95520.75;;;7.75;85.03
54465;BME280;40374;49.480;20.016;2023-01-04T13:09:19;95529.13;;;7.62;84.63
54465;BME280;40374;49.480;20.016;2023-01-04T13:12:45;95522.41;;;7.59;88.83
54465;BME280;40374;49.480;20.016;2023-01-04T13:14:50;95519.53;;;7.44;86.79
54465;BME280;40374;49.480;20.016;2023-01-04T13:17:21;95504.22;;;7.05;85.67
54465;BME280;40374;49.480;20.016;2023-01-04T13:19:50;95503.09;;;6.84;88.93
54465;BME280;40374;49.480;20.016;2023-01-04T13:22:20;95500.91;;;6.64;94.52
54465;BME280;40374;49.480;20.016;2023-01-04T13:24:56;95489.81;;;6.56;95.19
54465;BME280;40374;49.480;20.016;2023-01-04T13:27:26;95481.50;;;6.40;97.09
54465;BME280;40374;49.480;20.016;2023-01-04T13:29:54;95480.34;;;6.36;98.03
54465;BME280;40374;49.480;20.016;2023-01-04T13:32:24;95474.06;;;6.42;98.90
54465;BME280;40374;49.480;20.016;2023-01-04T13:35:12;95460.47;;;6.44;98.69
54465;BME280;40374;49.480;20.016;2023-01-04T13:37:43;95462.91;;;6.45;99.22
54465;BME280;40374;49.480;20.016;2023-01-04T13:40:29;95458.34;;;6.46;97.71
54465;BME280;40374;49.480;20.016;2023-01-04T13:48:41;95466.69;;;6.33;100.00
54465;BME280;40374;49.480;20.016;2023-01-04T13:54:00;95460.59;;;6.20;100.00
54465;BME280;40374;49.480;20.016;2023-01-04T13:56:30;95458.53;;;6.10;100.00
54465;BME280;40374;49.480;20.016;2023-01-04T13:58:59;95453.91;;;6.06;100.00
54465;BME280;40374;49.480;20.016;2023-01-04T14:01:30;95454.63;;;5.89;100.00
54465;BME280;40374;49.480;20.016;2023-01-04T14:04:10;95450.16;;;5.78;100.00
54465;BME280;40374;49.480;20.016;2023-01-04T14:06:44;95444.41;;;5.69;100.00
54465;BME280;40374;49.480;20.016;2023-01-04T14:09:16;95456.34;;;5.67;100.00
54465;BME280;40374;49.480;20.016;2023-01-04T14:11:48;95425.31;;;5.49;100.00
54465;BME280;40374;49.480;20.016;2023-01-04T14:17:33;95448.88;;;5.40;100.00
54465;BME280;40374;49.480;20.016;2023-01-04T14:22:53;95439.63;;;5.19;100.00
54465;BME280;40374;49.480;20.016;2023-01-04T14:30:48;95429.19;;;5.06;100.00
54465;BME280;40374;49.480;20.016;2023-01-04T14:33:29;95426.44;;;5.01;100.00
54465;BME280;40374;49.480;20.016;2023-01-04T14:36:13;95416.69;;;4.83;100.00
54465;BME280;40374;49.480;20.016;2023-01-04T14:38:44;95411.72;;;4.86;100.00
54465;BME280;40374;49.480;20.016;2023-01-04T14:46:27;95396.91;;;4.79;100.00
54465;BME280;40374;49.480;20.016;2023-01-04T14:48:57;95378.09;;;4.62;100.00
54465;BME280;40374;49.480;20.016;2023-01-04T14:51:34;95388.31;;;4.65;100.00
54465;BME280;40374;49.480;20.016;2023-01-04T14:54:05;95387.63;;;4.70;100.00
54465;BME280;40374;49.480;20.016;2023-01-04T14:56:33;95383.56;;;4.67;100.00
54465;BME280;40374;49.480;20.016;2023-01-04T14:59:01;95378.69;;;4.64;100.00
54465;BME280;40374;49.480;20.016;2023-01-04T15:01:28;95359.13;;;4.46;100.00
54465;BME280;40374;49.480;20.016;2023-01-04T15:03:56;95360.06;;;4.52;100.00